AGGH/HIR METAR and TAF weather

Enter ICAO airport designator
Station Type Date Time Source
AGGH METAR 2019/07/20 05:00 UTC NOAA

AGGH 200500Z 07012KT 9999 FEW017 FEW019CB SCT300 31/25 Q1009


Station Type Date Time Source
AGGH Decoded METAR 2019/07/20 05:00 UTC NOAA

Honiara / Henderson, Solomon Islands (AGGH) 09-25S 160-03E 9M
Jul 20, 2019 - 01:00 AM EDT / 2019.07.20 0500 UTC
Wind: from the ENE (070 degrees) at 14 MPH (12 KT):0
Visibility: greater than 7 mile(s):0
Sky conditions: partly cloudy
Weather: Cumulonimbus clouds observed
Temperature: 87 F (31 C)
Heat index: 97.5 F (36.4 C):1
Dew Point: 77 F (25 C)
Relative Humidity: 70%
Pressure (altimeter): 29.80 in. Hg (1009 hPa)
ob: AGGH 200500Z 07012KT 9999 FEW017 FEW019CB SCT300 31/25 Q1009
cycle: 5

Station Type Date Time Source
AGGH TAF 2019/07/19 18:13 UTC NOAA

TAF AGGH 191710Z 1918/2018 07015KT 9999 SCT018 PROB40 INTER 2001/2006 5000 SHRA BKN017 T 23 26 31 32 Q 1008 1010 1010 1008

Example: see airport list